Pocono Summit, Pennsylvania
Current Conditions -  °F | °C
As of 3:53 AM on Saturday 25 Oct 2014 (Local Time) from KMPO Reporting Station
Clear Clear  
Wind Chill: 37°   Ceiling: Unl
Heat Index: 43°   Visibility: 10mi
Dew Point: 30°   Wind: 12mph
Humidity: 60%   Direction: 320°NW
Pressure: 29.87"   Gusts: NA
Location:  41.11°N, 75.39°W
Report Text: KMPO 250753Z AUTO 32010KT 10SM CLR 06/M01 A2987 RMK AO2 SLP118 T00611011
Loading
Personal Weather Stations






























Interactive Weather Map New forecast layout! Learn more

10-Day Weather Forecast

Advertisements
Track Severe Weather on mobile